sensor_id;sensor_type;location;lat;lon;timestamp;P1;durP1;ratioP1;P2;durP2;ratioP2
22415;SDS011;12204;50.600;4.608;2022-12-01T00:05:18;8.40;;;4.07;;
22415;SDS011;12204;50.600;4.608;2022-12-01T00:10:22;8.45;;;4.05;;
22415;SDS011;12204;50.600;4.608;2022-12-01T00:15:30;8.27;;;4.07;;
22415;SDS011;12204;50.600;4.608;2022-12-01T00:20:37;8.32;;;4.00;;
22415;SDS011;12204;50.600;4.608;2022-12-01T00:25:41;7.70;;;4.05;;
22415;SDS011;12204;50.600;4.608;2022-12-01T00:30:45;8.50;;;3.90;;
22415;SDS011;12204;50.600;4.608;2022-12-01T00:35:52;8.10;;;3.85;;
22415;SDS011;12204;50.600;4.608;2022-12-01T00:41:00;8.07;;;4.05;;
22415;SDS011;12204;50.600;4.608;2022-12-01T00:46:04;7.10;;;3.85;;
22415;SDS011;12204;50.600;4.608;2022-12-01T00:51:09;9.70;;;3.80;;
22415;SDS011;12204;50.600;4.608;2022-12-01T00:56:14;7.68;;;3.60;;
22415;SDS011;12204;50.600;4.608;2022-12-01T01:01:18;6.88;;;3.80;;
22415;SDS011;12204;50.600;4.608;2022-12-01T01:06:23;6.82;;;3.50;;
22415;SDS011;12204;50.600;4.608;2022-12-01T01:11:27;6.75;;;3.55;;
22415;SDS011;12204;50.600;4.608;2022-12-01T01:16:31;8.68;;;4.10;;
22415;SDS011;12204;50.600;4.608;2022-12-01T01:21:37;6.75;;;3.60;;
22415;SDS011;12204;50.600;4.608;2022-12-01T01:26:41;6.32;;;3.35;;
22415;SDS011;12204;50.600;4.608;2022-12-01T01:31:44;7.43;;;3.58;;
22415;SDS011;12204;50.600;4.608;2022-12-01T01:36:49;6.68;;;3.65;;
22415;SDS011;12204;50.600;4.608;2022-12-01T01:41:53;6.15;;;3.55;;
22415;SDS011;12204;50.600;4.608;2022-12-01T01:46:57;6.10;;;3.33;;
22415;SDS011;12204;50.600;4.608;2022-12-01T01:52:02;7.35;;;3.65;;
22415;SDS011;12204;50.600;4.608;2022-12-01T01:57:07;7.65;;;3.70;;
22415;SDS011;12204;50.600;4.608;2022-12-01T02:02:13;8.23;;;3.43;;
22415;SDS011;12204;50.600;4.608;2022-12-01T02:07:19;7.93;;;3.72;;
22415;SDS011;12204;50.600;4.608;2022-12-01T02:12:26;7.38;;;3.85;;
22415;SDS011;12204;50.600;4.608;2022-12-01T02:17:53;6.35;;;3.40;;
22415;SDS011;12204;50.600;4.608;2022-12-01T02:23:25;6.72;;;3.40;;
22415;SDS011;12204;50.600;4.608;2022-12-01T02:29:11;7.72;;;3.15;;
22415;SDS011;12204;50.600;4.608;2022-12-01T02:35:15;6.90;;;3.60;;
22415;SDS011;12204;50.600;4.608;2022-12-01T02:40:45;7.93;;;3.55;;
22415;SDS011;12204;50.600;4.608;2022-12-01T02:46:11;5.90;;;3.28;;
22415;SDS011;12204;50.600;4.608;2022-12-01T02:51:26;6.05;;;3.40;;
22415;SDS011;12204;50.600;4.608;2022-12-01T02:56:33;7.13;;;3.65;;
22415;SDS011;12204;50.600;4.608;2022-12-01T03:01:55;7.68;;;3.70;;
22415;SDS011;12204;50.600;4.608;2022-12-01T03:07:33;8.73;;;3.45;;
22415;SDS011;12204;50.600;4.608;2022-12-01T03:13:04;7.15;;;3.63;;
22415;SDS011;12204;50.600;4.608;2022-12-01T03:18:24;7.15;;;3.53;;
22415;SDS011;12204;50.600;4.608;2022-12-01T03:23:38;8.40;;;3.50;;
22415;SDS011;12204;50.600;4.608;2022-12-01T03:28:48;7.05;;;3.80;;
22415;SDS011;12204;50.600;4.608;2022-12-01T03:33:57;6.15;;;3.50;;
22415;SDS011;12204;50.600;4.608;2022-12-01T03:39:10;6.82;;;3.78;;
22415;SDS011;12204;50.600;4.608;2022-12-01T03:44:21;7.57;;;3.67;;
22415;SDS011;12204;50.600;4.608;2022-12-01T03:49:31;7.75;;;3.55;;
22415;SDS011;12204;50.600;4.608;2022-12-01T03:54:40;7.63;;;3.58;;
22415;SDS011;12204;50.600;4.608;2022-12-01T03:59:53;6.30;;;3.22;;
22415;SDS011;12204;50.600;4.608;2022-12-01T04:04:57;7.53;;;3.50;;
22415;SDS011;12204;50.600;4.608;2022-12-01T04:10:03;7.40;;;3.22;;
22415;SDS011;12204;50.600;4.608;2022-12-01T04:15:10;6.40;;;3.28;;
22415;SDS011;12204;50.600;4.608;2022-12-01T04:20:15;7.65;;;3.38;;
22415;SDS011;12204;50.600;4.608;2022-12-01T04:25:21;6.53;;;3.30;;
22415;SDS011;12204;50.600;4.608;2022-12-01T04:30:24;5.97;;;3.25;;
22415;SDS011;12204;50.600;4.608;2022-12-01T04:35:28;6.55;;;3.33;;
22415;SDS011;12204;50.600;4.608;2022-12-01T04:40:33;6.68;;;3.67;;
22415;SDS011;12204;50.600;4.608;2022-12-01T04:45:37;6.20;;;3.40;;
22415;SDS011;12204;50.600;4.608;2022-12-01T04:50:41;6.78;;;3.38;;
22415;SDS011;12204;50.600;4.608;2022-12-01T04:55:46;6.40;;;3.40;;
22415;SDS011;12204;50.600;4.608;2022-12-01T05:00:50;7.18;;;3.30;;
22415;SDS011;12204;50.600;4.608;2022-12-01T05:05:59;7.55;;;3.58;;
22415;SDS011;12204;50.600;4.608;2022-12-01T05:11:05;9.60;;;3.63;;
22415;SDS011;12204;50.600;4.608;2022-12-01T05:16:13;6.70;;;3.60;;
22415;SDS011;12204;50.600;4.608;2022-12-01T05:26:25;7.53;;;3.95;;
22415;SDS011;12204;50.600;4.608;2022-12-01T05:31:29;6.43;;;3.42;;
22415;SDS011;12204;50.600;4.608;2022-12-01T05:36:33;7.65;;;3.88;;
22415;SDS011;12204;50.600;4.608;2022-12-01T05:41:38;6.70;;;3.85;;
22415;SDS011;12204;50.600;4.608;2022-12-01T05:46:42;6.65;;;3.60;;
22415;SDS011;12204;50.600;4.608;2022-12-01T05:51:46;6.35;;;3.35;;
22415;SDS011;12204;50.600;4.608;2022-12-01T05:56:51;7.07;;;3.60;;
22415;SDS011;12204;50.600;4.608;2022-12-01T06:01:55;6.32;;;3.60;;
22415;SDS011;12204;50.600;4.608;2022-12-01T06:06:58;6.85;;;3.70;;
22415;SDS011;12204;50.600;4.608;2022-12-01T06:12:04;5.85;;;3.47;;
22415;SDS011;12204;50.600;4.608;2022-12-01T06:17:08;6.63;;;3.65;;
22415;SDS011;12204;50.600;4.608;2022-12-01T06:22:12;7.05;;;4.00;;
22415;SDS011;12204;50.600;4.608;2022-12-01T06:27:17;8.05;;;3.88;;
22415;SDS011;12204;50.600;4.608;2022-12-01T06:32:21;7.82;;;4.03;;
22415;SDS011;12204;50.600;4.608;2022-12-01T06:37:25;8.13;;;3.80;;
22415;SDS011;12204;50.600;4.608;2022-12-01T06:42:30;8.13;;;3.63;;
22415;SDS011;12204;50.600;4.608;2022-12-01T06:47:34;8.27;;;3.90;;
22415;SDS011;12204;50.600;4.608;2022-12-01T06:52:38;6.50;;;3.55;;
22415;SDS011;12204;50.600;4.608;2022-12-01T06:57:43;7.55;;;3.70;;
22415;SDS011;12204;50.600;4.608;2022-12-01T07:02:47;6.57;;;3.53;;
22415;SDS011;12204;50.600;4.608;2022-12-01T07:07:51;7.63;;;3.63;;
22415;SDS011;12204;50.600;4.608;2022-12-01T07:13:01;6.70;;;3.58;;
22415;SDS011;12204;50.600;4.608;2022-12-01T07:18:05;8.63;;;3.65;;
22415;SDS011;12204;50.600;4.608;2022-12-01T07:23:08;7.63;;;3.70;;
22415;SDS011;12204;50.600;4.608;2022-12-01T07:28:13;7.20;;;3.45;;
22415;SDS011;12204;50.600;4.608;2022-12-01T07:33:17;8.25;;;3.30;;
22415;SDS011;12204;50.600;4.608;2022-12-01T07:38:21;7.47;;;3.60;;
22415;SDS011;12204;50.600;4.608;2022-12-01T07:43:26;10.30;;;3.40;;
22415;SDS011;12204;50.600;4.608;2022-12-01T07:48:31;8.43;;;3.70;;
22415;SDS011;12204;50.600;4.608;2022-12-01T07:53:35;12.68;;;3.40;;
22415;SDS011;12204;50.600;4.608;2022-12-01T07:58:40;6.70;;;3.40;;
22415;SDS011;12204;50.600;4.608;2022-12-01T08:03:46;7.75;;;3.25;;
22415;SDS011;12204;50.600;4.608;2022-12-01T08:08:51;6.38;;;3.28;;
22415;SDS011;12204;50.600;4.608;2022-12-01T08:13:56;6.32;;;3.10;;
22415;SDS011;12204;50.600;4.608;2022-12-01T08:19:00;6.40;;;3.00;;
22415;SDS011;12204;50.600;4.608;2022-12-01T08:24:04;6.18;;;3.00;;
22415;SDS011;12204;50.600;4.608;2022-12-01T08:29:10;6.68;;;3.00;;
22415;SDS011;12204;50.600;4.608;2022-12-01T08:34:21;9.10;;;3.03;;
22415;SDS011;12204;50.600;4.608;2022-12-01T08:39:24;8.45;;;2.65;;
22415;SDS011;12204;50.600;4.608;2022-12-01T08:44:30;7.25;;;3.05;;
22415;SDS011;12204;50.600;4.608;2022-12-01T08:49:34;6.40;;;3.10;;
22415;SDS011;12204;50.600;4.608;2022-12-01T08:54:37;7.47;;;3.30;;
22415;SDS011;12204;50.600;4.608;2022-12-01T08:59:42;10.95;;;3.20;;
22415;SDS011;12204;50.600;4.608;2022-12-01T09:04:47;12.77;;;3.30;;
22415;SDS011;12204;50.600;4.608;2022-12-01T09:09:51;11.52;;;3.20;;
22415;SDS011;12204;50.600;4.608;2022-12-01T09:14:56;11.18;;;3.47;;
22415;SDS011;12204;50.600;4.608;2022-12-01T09:20:00;13.88;;;3.72;;
22415;SDS011;12204;50.600;4.608;2022-12-01T09:25:04;11.85;;;3.67;;
22415;SDS011;12204;50.600;4.608;2022-12-01T09:30:16;10.50;;;4.00;;
22415;SDS011;12204;50.600;4.608;2022-12-01T09:35:20;15.70;;;6.32;;
22415;SDS011;12204;50.600;4.608;2022-12-01T09:40:29;15.70;;;6.40;;
22415;SDS011;12204;50.600;4.608;2022-12-01T09:45:40;14.32;;;6.25;;
22415;SDS011;12204;50.600;4.608;2022-12-01T09:50:50;14.25;;;6.07;;
22415;SDS011;12204;50.600;4.608;2022-12-01T09:55:54;12.68;;;5.93;;
22415;SDS011;12204;50.600;4.608;2022-12-01T10:01:10;13.10;;;5.55;;
22415;SDS011;12204;50.600;4.608;2022-12-01T10:06:28;15.88;;;5.50;;
22415;SDS011;12204;50.600;4.608;2022-12-01T10:11:40;19.05;;;5.25;;
22415;SDS011;12204;50.600;4.608;2022-12-01T10:16:50;19.17;;;5.15;;
22415;SDS011;12204;50.600;4.608;2022-12-01T10:22:11;17.70;;;5.00;;
22415;SDS011;12204;50.600;4.608;2022-12-01T10:27:50;19.13;;;4.97;;
22415;SDS011;12204;50.600;4.608;2022-12-01T10:33:19;16.43;;;4.80;;
22415;SDS011;12204;50.600;4.608;2022-12-01T10:38:27;12.93;;;4.47;;
22415;SDS011;12204;50.600;4.608;2022-12-01T10:43:38;10.65;;;4.70;;
22415;SDS011;12204;50.600;4.608;2022-12-01T10:48:55;12.70;;;4.82;;
22415;SDS011;12204;50.600;4.608;2022-12-01T10:54:06;12.32;;;4.50;;
22415;SDS011;12204;50.600;4.608;2022-12-01T11:04:41;11.85;;;5.47;;
22415;SDS011;12204;50.600;4.608;2022-12-01T11:10:12;13.25;;;5.97;;
22415;SDS011;12204;50.600;4.608;2022-12-01T11:15:21;22.85;;;9.60;;
22415;SDS011;12204;50.600;4.608;2022-12-01T11:20:31;17.23;;;7.63;;
22415;SDS011;12204;50.600;4.608;2022-12-01T11:25:38;16.42;;;8.48;;
22415;SDS011;12204;50.600;4.608;2022-12-01T11:30:42;19.10;;;9.27;;
22415;SDS011;12204;50.600;4.608;2022-12-01T11:35:47;18.88;;;9.07;;
22415;SDS011;12204;50.600;4.608;2022-12-01T11:40:52;16.63;;;8.57;;
22415;SDS011;12204;50.600;4.608;2022-12-01T11:45:59;19.07;;;9.03;;
22415;SDS011;12204;50.600;4.608;2022-12-01T11:51:09;18.05;;;8.88;;
22415;SDS011;12204;50.600;4.608;2022-12-01T11:56:30;18.38;;;9.27;;
22415;SDS011;12204;50.600;4.608;2022-12-01T12:01:36;16.67;;;8.43;;
22415;SDS011;12204;50.600;4.608;2022-12-01T12:07:01;16.35;;;8.48;;
22415;SDS011;12204;50.600;4.608;2022-12-01T12:12:15;18.52;;;8.73;;
22415;SDS011;12204;50.600;4.608;2022-12-01T12:17:46;17.77;;;8.88;;
22415;SDS011;12204;50.600;4.608;2022-12-01T12:23:20;17.05;;;8.48;;
22415;SDS011;12204;50.600;4.608;2022-12-01T12:28:45;17.83;;;9.00;;
22415;SDS011;12204;50.600;4.608;2022-12-01T12:34:28;16.40;;;8.75;;
22415;SDS011;12204;50.600;4.608;2022-12-01T12:39:54;16.47;;;8.67;;
22415;SDS011;12204;50.600;4.608;2022-12-01T12:51:05;15.07;;;8.00;;
22415;SDS011;12204;50.600;4.608;2022-12-01T12:56:21;14.80;;;7.57;;
22415;SDS011;12204;50.600;4.608;2022-12-01T13:01:29;15.60;;;7.38;;
22415;SDS011;12204;50.600;4.608;2022-12-01T13:06:40;15.57;;;7.65;;
22415;SDS011;12204;50.600;4.608;2022-12-01T13:11:52;17.60;;;8.00;;
22415;SDS011;12204;50.600;4.608;2022-12-01T13:17:11;15.63;;;7.80;;
22415;SDS011;12204;50.600;4.608;2022-12-01T13:22:22;14.73;;;7.45;;
22415;SDS011;12204;50.600;4.608;2022-12-01T13:27:34;13.35;;;7.18;;
22415;SDS011;12204;50.600;4.608;2022-12-01T13:32:43;15.13;;;7.40;;
22415;SDS011;12204;50.600;4.608;2022-12-01T13:37:48;14.35;;;7.47;;
22415;SDS011;12204;50.600;4.608;2022-12-01T13:42:57;13.90;;;7.10;;
22415;SDS011;12204;50.600;4.608;2022-12-01T13:48:26;14.23;;;7.30;;
22415;SDS011;12204;50.600;4.608;2022-12-01T13:53:59;13.43;;;7.30;;
22415;SDS011;12204;50.600;4.608;2022-12-01T14:10:53;13.15;;;6.93;;
22415;SDS011;12204;50.600;4.608;2022-12-01T14:16:02;14.00;;;7.22;;
22415;SDS011;12204;50.600;4.608;2022-12-01T14:21:07;14.63;;;7.55;;
22415;SDS011;12204;50.600;4.608;2022-12-01T14:26:15;14.27;;;7.00;;
22415;SDS011;12204;50.600;4.608;2022-12-01T14:31:24;14.15;;;7.50;;
22415;SDS011;12204;50.600;4.608;2022-12-01T14:37:24;13.13;;;6.85;;
22415;SDS011;12204;50.600;4.608;2022-12-01T14:42:40;13.38;;;6.90;;
22415;SDS011;12204;50.600;4.608;2022-12-01T14:48:10;14.77;;;7.25;;
22415;SDS011;12204;50.600;4.608;2022-12-01T14:53:22;14.10;;;7.00;;
22415;SDS011;12204;50.600;4.608;2022-12-01T14:58:30;12.20;;;6.95;;
22415;SDS011;12204;50.600;4.608;2022-12-01T15:03:37;13.27;;;7.25;;
22415;SDS011;12204;50.600;4.608;2022-12-01T15:08:45;13.60;;;7.25;;
22415;SDS011;12204;50.600;4.608;2022-12-01T15:14:31;14.05;;;7.22;;
22415;SDS011;12204;50.600;4.608;2022-12-01T15:19:39;12.85;;;6.55;;
22415;SDS011;12204;50.600;4.608;2022-12-01T15:24:44;11.80;;;6.75;;
22415;SDS011;12204;50.600;4.608;2022-12-01T15:29:48;13.52;;;6.97;;
22415;SDS011;12204;50.600;4.608;2022-12-01T15:34:54;12.32;;;6.78;;
22415;SDS011;12204;50.600;4.608;2022-12-01T15:40:04;14.43;;;6.80;;
22415;SDS011;12204;50.600;4.608;2022-12-01T15:45:40;13.45;;;6.85;;
22415;SDS011;12204;50.600;4.608;2022-12-01T15:50:59;11.23;;;6.55;;
22415;SDS011;12204;50.600;4.608;2022-12-01T15:56:10;11.52;;;6.28;;
22415;SDS011;12204;50.600;4.608;2022-12-01T16:01:15;12.52;;;6.68;;
22415;SDS011;12204;50.600;4.608;2022-12-01T16:06:23;10.98;;;6.03;;
22415;SDS011;12204;50.600;4.608;2022-12-01T16:11:31;11.55;;;6.60;;
22415;SDS011;12204;50.600;4.608;2022-12-01T16:16:36;10.52;;;5.95;;
22415;SDS011;12204;50.600;4.608;2022-12-01T16:21:46;11.27;;;6.03;;
22415;SDS011;12204;50.600;4.608;2022-12-01T16:26:52;11.37;;;6.37;;
22415;SDS011;12204;50.600;4.608;2022-12-01T16:32:10;11.80;;;6.00;;
22415;SDS011;12204;50.600;4.608;2022-12-01T16:37:24;11.95;;;6.25;;
22415;SDS011;12204;50.600;4.608;2022-12-01T16:42:29;14.38;;;6.30;;
22415;SDS011;12204;50.600;4.608;2022-12-01T16:47:32;12.10;;;6.88;;
22415;SDS011;12204;50.600;4.608;2022-12-01T16:52:37;11.40;;;6.13;;
22415;SDS011;12204;50.600;4.608;2022-12-01T16:57:46;11.32;;;6.18;;
22415;SDS011;12204;50.600;4.608;2022-12-01T17:02:50;9.98;;;5.63;;
22415;SDS011;12204;50.600;4.608;2022-12-01T17:07:55;12.20;;;5.82;;
22415;SDS011;12204;50.600;4.608;2022-12-01T17:12:59;14.57;;;6.40;;
22415;SDS011;12204;50.600;4.608;2022-12-01T17:18:04;14.52;;;6.38;;
22415;SDS011;12204;50.600;4.608;2022-12-01T17:23:09;10.48;;;5.15;;
22415;SDS011;12204;50.600;4.608;2022-12-01T17:28:13;9.00;;;4.80;;
22415;SDS011;12204;50.600;4.608;2022-12-01T17:33:17;10.57;;;4.22;;
22415;SDS011;12204;50.600;4.608;2022-12-01T17:38:22;9.77;;;4.30;;
22415;SDS011;12204;50.600;4.608;2022-12-01T17:43:25;8.65;;;4.13;;
22415;SDS011;12204;50.600;4.608;2022-12-01T17:48:30;8.90;;;4.22;;
22415;SDS011;12204;50.600;4.608;2022-12-01T17:53:39;9.82;;;4.20;;
22415;SDS011;12204;50.600;4.608;2022-12-01T17:58:43;9.60;;;3.80;;
22415;SDS011;12204;50.600;4.608;2022-12-01T18:03:47;8.20;;;3.72;;
22415;SDS011;12204;50.600;4.608;2022-12-01T18:08:53;13.02;;;4.15;;
22415;SDS011;12204;50.600;4.608;2022-12-01T18:13:58;11.27;;;3.92;;
22415;SDS011;12204;50.600;4.608;2022-12-01T18:19:03;9.88;;;3.90;;
22415;SDS011;12204;50.600;4.608;2022-12-01T18:24:08;12.02;;;4.10;;
22415;SDS011;12204;50.600;4.608;2022-12-01T18:29:12;11.27;;;3.90;;
22415;SDS011;12204;50.600;4.608;2022-12-01T18:34:26;10.38;;;3.92;;
22415;SDS011;12204;50.600;4.608;2022-12-01T18:39:32;9.63;;;3.83;;
22415;SDS011;12204;50.600;4.608;2022-12-01T18:44:36;10.23;;;3.83;;
22415;SDS011;12204;50.600;4.608;2022-12-01T18:49:40;8.43;;;4.20;;
22415;SDS011;12204;50.600;4.608;2022-12-01T18:54:45;9.55;;;4.10;;
22415;SDS011;12204;50.600;4.608;2022-12-01T18:59:49;7.32;;;4.15;;
22415;SDS011;12204;50.600;4.608;2022-12-01T19:04:52;9.40;;;4.28;;
22415;SDS011;12204;50.600;4.608;2022-12-01T19:09:57;7.32;;;3.80;;
22415;SDS011;12204;50.600;4.608;2022-12-01T19:15:01;7.75;;;4.10;;
22415;SDS011;12204;50.600;4.608;2022-12-01T19:20:06;9.43;;;4.40;;
22415;SDS011;12204;50.600;4.608;2022-12-01T19:25:13;9.77;;;4.63;;
22415;SDS011;12204;50.600;4.608;2022-12-01T19:30:17;8.85;;;4.75;;
22415;SDS011;12204;50.600;4.608;2022-12-01T19:35:21;10.15;;;4.82;;
22415;SDS011;12204;50.600;4.608;2022-12-01T19:40:26;8.75;;;4.53;;
22415;SDS011;12204;50.600;4.608;2022-12-01T19:45:30;10.45;;;4.72;;
22415;SDS011;12204;50.600;4.608;2022-12-01T19:50:35;11.73;;;5.10;;
22415;SDS011;12204;50.600;4.608;2022-12-01T19:55:40;8.52;;;5.03;;
22415;SDS011;12204;50.600;4.608;2022-12-01T20:00:44;9.95;;;4.85;;
22415;SDS011;12204;50.600;4.608;2022-12-01T20:05:48;8.73;;;4.90;;
22415;SDS011;12204;50.600;4.608;2022-12-01T20:10:53;9.55;;;5.07;;
22415;SDS011;12204;50.600;4.608;2022-12-01T20:15:59;9.18;;;4.80;;
22415;SDS011;12204;50.600;4.608;2022-12-01T20:21:06;10.70;;;5.20;;
22415;SDS011;12204;50.600;4.608;2022-12-01T20:26:18;8.75;;;5.10;;
22415;SDS011;12204;50.600;4.608;2022-12-01T20:31:30;9.27;;;5.00;;
22415;SDS011;12204;50.600;4.608;2022-12-01T20:36:35;9.52;;;5.15;;
22415;SDS011;12204;50.600;4.608;2022-12-01T20:41:42;9.50;;;5.25;;
22415;SDS011;12204;50.600;4.608;2022-12-01T20:46:46;9.77;;;5.10;;
22415;SDS011;12204;50.600;4.608;2022-12-01T20:51:50;10.70;;;5.55;;
22415;SDS011;12204;50.600;4.608;2022-12-01T20:56:55;10.25;;;5.38;;
22415;SDS011;12204;50.600;4.608;2022-12-01T21:02:00;9.30;;;5.10;;
22415;SDS011;12204;50.600;4.608;2022-12-01T21:07:03;9.80;;;5.68;;
22415;SDS011;12204;50.600;4.608;2022-12-01T21:12:11;10.07;;;5.20;;
22415;SDS011;12204;50.600;4.608;2022-12-01T21:17:36;10.60;;;5.40;;
22415;SDS011;12204;50.600;4.608;2022-12-01T21:22:47;9.15;;;5.25;;
22415;SDS011;12204;50.600;4.608;2022-12-01T21:27:54;9.00;;;5.40;;
22415;SDS011;12204;50.600;4.608;2022-12-01T21:33:14;10.05;;;5.10;;
22415;SDS011;12204;50.600;4.608;2022-12-01T21:38:29;8.80;;;4.65;;
22415;SDS011;12204;50.600;4.608;2022-12-01T21:43:35;7.38;;;4.60;;
22415;SDS011;12204;50.600;4.608;2022-12-01T21:48:39;8.95;;;4.80;;
22415;SDS011;12204;50.600;4.608;2022-12-01T21:53:44;7.50;;;4.38;;
22415;SDS011;12204;50.600;4.608;2022-12-01T21:58:51;9.15;;;4.88;;
22415;SDS011;12204;50.600;4.608;2022-12-01T22:03:59;9.02;;;4.80;;
22415;SDS011;12204;50.600;4.608;2022-12-01T22:09:11;8.07;;;4.50;;
22415;SDS011;12204;50.600;4.608;2022-12-01T22:14:28;8.10;;;4.53;;
22415;SDS011;12204;50.600;4.608;2022-12-01T22:19:36;7.88;;;4.43;;
22415;SDS011;12204;50.600;4.608;2022-12-01T22:24:44;7.90;;;4.33;;
22415;SDS011;12204;50.600;4.608;2022-12-01T22:29:54;29.52;;;13.25;;
22415;SDS011;12204;50.600;4.608;2022-12-01T22:35:21;52.47;;;24.25;;
22415;SDS011;12204;50.600;4.608;2022-12-01T22:40:37;42.88;;;20.42;;
22415;SDS011;12204;50.600;4.608;2022-12-01T22:45:46;39.45;;;18.92;;
22415;SDS011;12204;50.600;4.608;2022-12-01T22:50:54;36.20;;;17.13;;
22415;SDS011;12204;50.600;4.608;2022-12-01T22:55:59;25.60;;;13.10;;
22415;SDS011;12204;50.600;4.608;2022-12-01T23:01:09;26.65;;;12.70;;
22415;SDS011;12204;50.600;4.608;2022-12-01T23:17:35;40.22;;;18.85;;
22415;SDS011;12204;50.600;4.608;2022-12-01T23:22:40;40.87;;;19.60;;
22415;SDS011;12204;50.600;4.608;2022-12-01T23:27:45;41.10;;;19.30;;
22415;SDS011;12204;50.600;4.608;2022-12-01T23:32:58;36.57;;;19.37;;
22415;SDS011;12204;50.600;4.608;2022-12-01T23:38:22;36.22;;;18.60;;
22415;SDS011;12204;50.600;4.608;2022-12-01T23:43:31;34.65;;;18.27;;
22415;SDS011;12204;50.600;4.608;2022-12-01T23:48:41;37.75;;;19.52;;
22415;SDS011;12204;50.600;4.608;2022-12-01T23:53:49;33.75;;;17.75;;
22415;SDS011;12204;50.600;4.608;2022-12-01T23:58:54;35.72;;;18.58;;
